< Typhoon 200012 2000 Season Typhoon 200014 >
Typhoon 200013 (MARIA)
General InformationTrack Information on Google MapsDetailed Wind InformationList of All Images || Disaster Info.ResourceGoogle EarthGE AnimationAtom FeedGeoJSON
Detalied Best Track (Time Zone = UTC)
Year Month Day Hour Lat. Long. Pressure (hPa) Wind (kt) Class Image Chart
2000 8 27 06 21.6 115.0 1000 0 2 Image Chart
2000 8 27 12 21.3 115.2 1000 0 2 Image Chart
2000 8 27 18 21.2 115.5 1000 0 2 Image Chart
2000 8 28 00 21.2 115.9 1000 0 2 Image Chart
2000 8 28 06 20.8 115.7 998 0 2 Image Chart
2000 8 28 12 20.2 115.2 996 35 3 Image Chart
2000 8 28 18 19.6 115.0 992 35 3 Image Chart
2000 8 29 00 19.1 115.3 992 35 3 Image Chart
2000 8 29 06 18.6 115.6 992 35 3 Image Chart
2000 8 29 12 18.2 115.7 990 35 3 Image Chart
2000 8 29 18 18.1 115.8 990 35 3 Image Chart
2000 8 30 00 18.0 115.6 990 35 3 Image Chart
2000 8 30 06 18.2 115.1 990 35 3 Image Chart
2000 8 30 12 19.0 115.9 990 35 3 Image Chart
2000 8 30 18 19.4 116.0 990 35 3 Image Chart
2000 8 31 00 20.2 116.1 985 40 3 Image Chart
2000 8 31 06 21.0 115.6 985 40 3 Image Chart
2000 8 31 12 21.8 115.4 985 40 3 Image Chart
2000 8 31 18 22.4 115.3 985 40 3 Image Chart
2000 9 1 00 23.4 114.5 990 35 3 Image Chart
2000 9 1 06 24.6 114.4 990 0 2 Image Chart
2000 9 1 12 25.4 114.6 996 0 2 Image Chart
2000 9 1 18 26.7 114.2 998 0 2 Image Chart
2000 9 2 00 27.5 113.7 1000 0 2 Image Chart
2000 9 2 06 28.7 113.4 1002 0 2 Image Chart
2000 9 2 12 29.5 112.5 1002 0 2 Image Chart
2000 9 2 18 29.8 111.7 1004 0 2 Image Chart
Japan Meteorological Agency Best Track Data | Correction Date : 2001-12-21
< Typhoon 200012 2000 Season Typhoon 200014 >

Help